sensor_id;sensor_type;location;lat;lon;timestamp;P1;durP1;ratioP1;P2;durP2;ratioP2
57832;SDS011;43667;53.036;6.740;2024-02-14T00:02:23;17.25;;;11.82;;
57832;SDS011;43667;53.036;6.740;2024-02-14T00:04:51;15.15;;;11.05;;
57832;SDS011;43667;53.036;6.740;2024-02-14T00:07:17;17.17;;;11.43;;
57832;SDS011;43667;53.036;6.740;2024-02-14T00:09:43;14.65;;;10.65;;
57832;SDS011;43667;53.036;6.740;2024-02-14T00:12:09;14.85;;;11.27;;
57832;SDS011;43667;53.036;6.740;2024-02-14T00:14:36;15.15;;;11.43;;
57832;SDS011;43667;53.036;6.740;2024-02-14T00:17:02;16.10;;;12.05;;
57832;SDS011;43667;53.036;6.740;2024-02-14T00:19:30;18.42;;;12.18;;
57832;SDS011;43667;53.036;6.740;2024-02-14T00:21:56;22.85;;;14.23;;
57832;SDS011;43667;53.036;6.740;2024-02-14T00:24:22;19.88;;;13.15;;
57832;SDS011;43667;53.036;6.740;2024-02-14T00:26:49;17.08;;;13.02;;
57832;SDS011;43667;53.036;6.740;2024-02-14T00:29:15;21.58;;;14.77;;
57832;SDS011;43667;53.036;6.740;2024-02-14T00:31:41;19.67;;;14.18;;
57832;SDS011;43667;53.036;6.740;2024-02-14T00:34:09;17.42;;;14.77;;
57832;SDS011;43667;53.036;6.740;2024-02-14T00:36:35;19.33;;;14.23;;
57832;SDS011;43667;53.036;6.740;2024-02-14T00:39:02;18.10;;;15.52;;
57832;SDS011;43667;53.036;6.740;2024-02-14T00:41:28;21.92;;;16.45;;
57832;SDS011;43667;53.036;6.740;2024-02-14T00:43:57;17.52;;;15.20;;
57832;SDS011;43667;53.036;6.740;2024-02-14T00:46:24;16.85;;;15.13;;
57832;SDS011;43667;53.036;6.740;2024-02-14T00:48:50;17.42;;;15.13;;
57832;SDS011;43667;53.036;6.740;2024-02-14T00:51:16;21.02;;;16.75;;
57832;SDS011;43667;53.036;6.740;2024-02-14T00:53:42;16.63;;;14.15;;
57832;SDS011;43667;53.036;6.740;2024-02-14T00:56:08;18.58;;;16.60;;
57832;SDS011;43667;53.036;6.740;2024-02-14T00:58:34;15.45;;;13.77;;
57832;SDS011;43667;53.036;6.740;2024-02-14T01:01:00;16.67;;;14.88;;
57832;SDS011;43667;53.036;6.740;2024-02-14T01:03:26;17.50;;;14.20;;
57832;SDS011;43667;53.036;6.740;2024-02-14T01:05:52;16.02;;;14.32;;
57832;SDS011;43667;53.036;6.740;2024-02-14T01:08:18;18.98;;;14.95;;
57832;SDS011;43667;53.036;6.740;2024-02-14T01:10:44;18.98;;;16.10;;
57832;SDS011;43667;53.036;6.740;2024-02-14T01:13:11;18.88;;;15.75;;
57832;SDS011;43667;53.036;6.740;2024-02-14T01:15:37;17.38;;;15.55;;
57832;SDS011;43667;53.036;6.740;2024-02-14T01:18:03;19.17;;;15.65;;
57832;SDS011;43667;53.036;6.740;2024-02-14T01:20:29;16.48;;;14.77;;
57832;SDS011;43667;53.036;6.740;2024-02-14T01:22:55;20.13;;;16.05;;
57832;SDS011;43667;53.036;6.740;2024-02-14T01:25:21;16.10;;;13.77;;
57832;SDS011;43667;53.036;6.740;2024-02-14T01:27:48;17.38;;;14.32;;
57832;SDS011;43667;53.036;6.740;2024-02-14T01:30:14;19.73;;;17.05;;
57832;SDS011;43667;53.036;6.740;2024-02-14T01:32:40;16.13;;;14.52;;
57832;SDS011;43667;53.036;6.740;2024-02-14T01:35:06;16.80;;;14.48;;
57832;SDS011;43667;53.036;6.740;2024-02-14T01:37:34;15.25;;;13.65;;
57832;SDS011;43667;53.036;6.740;2024-02-14T01:40:00;16.20;;;14.55;;
57832;SDS011;43667;53.036;6.740;2024-02-14T01:42:27;16.42;;;13.95;;
57832;SDS011;43667;53.036;6.740;2024-02-14T01:44:53;18.85;;;15.43;;
57832;SDS011;43667;53.036;6.740;2024-02-14T01:47:19;15.55;;;12.85;;
57832;SDS011;43667;53.036;6.740;2024-02-14T01:49:46;17.10;;;14.38;;
57832;SDS011;43667;53.036;6.740;2024-02-14T01:52:12;15.20;;;12.82;;
57832;SDS011;43667;53.036;6.740;2024-02-14T01:54:39;13.27;;;11.98;;
57832;SDS011;43667;53.036;6.740;2024-02-14T01:57:05;13.93;;;12.50;;
57832;SDS011;43667;53.036;6.740;2024-02-14T01:59:33;13.18;;;11.98;;
57832;SDS011;43667;53.036;6.740;2024-02-14T02:02:02;14.68;;;11.98;;
57832;SDS011;43667;53.036;6.740;2024-02-14T02:04:28;14.60;;;12.57;;
57832;SDS011;43667;53.036;6.740;2024-02-14T02:06:55;15.25;;;13.43;;
57832;SDS011;43667;53.036;6.740;2024-02-14T02:09:21;12.43;;;11.23;;
57832;SDS011;43667;53.036;6.740;2024-02-14T02:11:48;13.27;;;11.88;;
57832;SDS011;43667;53.036;6.740;2024-02-14T02:14:15;13.98;;;12.68;;
57832;SDS011;43667;53.036;6.740;2024-02-14T02:16:44;15.40;;;12.90;;
57832;SDS011;43667;53.036;6.740;2024-02-14T02:19:11;14.77;;;13.20;;
57832;SDS011;43667;53.036;6.740;2024-02-14T02:21:37;15.15;;;12.55;;
57832;SDS011;43667;53.036;6.740;2024-02-14T02:24:03;13.07;;;11.80;;
57832;SDS011;43667;53.036;6.740;2024-02-14T02:26:30;11.95;;;10.77;;
57832;SDS011;43667;53.036;6.740;2024-02-14T02:28:56;10.57;;;9.63;;
57832;SDS011;43667;53.036;6.740;2024-02-14T02:31:22;11.88;;;10.70;;
57832;SDS011;43667;53.036;6.740;2024-02-14T02:33:48;12.70;;;11.40;;
57832;SDS011;43667;53.036;6.740;2024-02-14T02:36:17;15.70;;;12.32;;
57832;SDS011;43667;53.036;6.740;2024-02-14T02:38:43;15.02;;;13.52;;
57832;SDS011;43667;53.036;6.740;2024-02-14T02:41:09;11.98;;;10.57;;
57832;SDS011;43667;53.036;6.740;2024-02-14T02:43:35;13.82;;;11.40;;
57832;SDS011;43667;53.036;6.740;2024-02-14T02:46:01;13.25;;;11.70;;
57832;SDS011;43667;53.036;6.740;2024-02-14T02:48:27;13.20;;;11.80;;
57832;SDS011;43667;53.036;6.740;2024-02-14T02:50:53;13.23;;;11.35;;
57832;SDS011;43667;53.036;6.740;2024-02-14T02:53:19;16.00;;;12.80;;
57832;SDS011;43667;53.036;6.740;2024-02-14T02:55:46;16.52;;;13.25;;
57832;SDS011;43667;53.036;6.740;2024-02-14T02:58:12;10.65;;;9.63;;
57832;SDS011;43667;53.036;6.740;2024-02-14T03:00:38;15.02;;;11.25;;
57832;SDS011;43667;53.036;6.740;2024-02-14T03:03:07;17.10;;;12.70;;
57832;SDS011;43667;53.036;6.740;2024-02-14T03:05:33;12.45;;;10.75;;
57832;SDS011;43667;53.036;6.740;2024-02-14T03:07:59;14.60;;;11.77;;
57832;SDS011;43667;53.036;6.740;2024-02-14T03:10:26;10.70;;;9.60;;
57832;SDS011;43667;53.036;6.740;2024-02-14T03:12:52;13.05;;;10.88;;
57832;SDS011;43667;53.036;6.740;2024-02-14T03:15:19;13.02;;;11.50;;
57832;SDS011;43667;53.036;6.740;2024-02-14T03:17:46;11.93;;;10.73;;
57832;SDS011;43667;53.036;6.740;2024-02-14T03:20:12;11.63;;;10.43;;
57832;SDS011;43667;53.036;6.740;2024-02-14T03:22:39;11.48;;;10.05;;
57832;SDS011;43667;53.036;6.740;2024-02-14T03:25:11;11.20;;;10.10;;
57832;SDS011;43667;53.036;6.740;2024-02-14T03:27:38;10.75;;;9.75;;
57832;SDS011;43667;53.036;6.740;2024-02-14T03:30:05;12.52;;;10.82;;
57832;SDS011;43667;53.036;6.740;2024-02-14T03:32:31;12.57;;;10.93;;
57832;SDS011;43667;53.036;6.740;2024-02-14T03:34:58;12.93;;;11.00;;
57832;SDS011;43667;53.036;6.740;2024-02-14T03:37:25;13.73;;;10.75;;
57832;SDS011;43667;53.036;6.740;2024-02-14T03:39:51;12.85;;;11.13;;
57832;SDS011;43667;53.036;6.740;2024-02-14T03:42:17;11.73;;;10.48;;
57832;SDS011;43667;53.036;6.740;2024-02-14T03:44:45;10.27;;;9.27;;
57832;SDS011;43667;53.036;6.740;2024-02-14T03:47:11;10.40;;;9.40;;
57832;SDS011;43667;53.036;6.740;2024-02-14T03:49:38;11.73;;;10.02;;
57832;SDS011;43667;53.036;6.740;2024-02-14T03:52:06;11.50;;;10.30;;
57832;SDS011;43667;53.036;6.740;2024-02-14T03:54:35;15.43;;;11.15;;
57832;SDS011;43667;53.036;6.740;2024-02-14T03:57:02;16.45;;;11.65;;
57832;SDS011;43667;53.036;6.740;2024-02-14T03:59:30;12.70;;;10.77;;
57832;SDS011;43667;53.036;6.740;2024-02-14T04:01:57;13.32;;;10.57;;
57832;SDS011;43667;53.036;6.740;2024-02-14T04:04:23;13.60;;;10.70;;
57832;SDS011;43667;53.036;6.740;2024-02-14T04:06:49;10.00;;;8.80;;
57832;SDS011;43667;53.036;6.740;2024-02-14T04:09:16;13.07;;;10.55;;
57832;SDS011;43667;53.036;6.740;2024-02-14T04:11:42;13.25;;;10.18;;
57832;SDS011;43667;53.036;6.740;2024-02-14T04:14:08;11.55;;;9.95;;
57832;SDS011;43667;53.036;6.740;2024-02-14T04:16:34;11.80;;;10.25;;
57832;SDS011;43667;53.036;6.740;2024-02-14T04:19:01;11.93;;;9.95;;
57832;SDS011;43667;53.036;6.740;2024-02-14T04:21:28;10.00;;;8.88;;
57832;SDS011;43667;53.036;6.740;2024-02-14T04:23:54;11.27;;;9.32;;
57832;SDS011;43667;53.036;6.740;2024-02-14T04:26:22;12.45;;;9.55;;
57832;SDS011;43667;53.036;6.740;2024-02-14T04:28:48;12.15;;;9.07;;
57832;SDS011;43667;53.036;6.740;2024-02-14T04:31:14;11.48;;;8.73;;
57832;SDS011;43667;53.036;6.740;2024-02-14T04:33:41;9.10;;;8.18;;
57832;SDS011;43667;53.036;6.740;2024-02-14T04:36:07;10.38;;;8.73;;
57832;SDS011;43667;53.036;6.740;2024-02-14T04:38:33;10.35;;;8.65;;
57832;SDS011;43667;53.036;6.740;2024-02-14T04:40:59;11.65;;;9.20;;
57832;SDS011;43667;53.036;6.740;2024-02-14T04:43:25;11.07;;;8.88;;
57832;SDS011;43667;53.036;6.740;2024-02-14T04:45:52;10.10;;;8.35;;
57832;SDS011;43667;53.036;6.740;2024-02-14T04:48:18;12.10;;;9.00;;
57832;SDS011;43667;53.036;6.740;2024-02-14T04:50:44;11.68;;;9.07;;
57832;SDS011;43667;53.036;6.740;2024-02-14T04:53:10;12.70;;;9.30;;
57832;SDS011;43667;53.036;6.740;2024-02-14T04:55:36;12.60;;;10.40;;
57832;SDS011;43667;53.036;6.740;2024-02-14T04:58:02;17.60;;;11.07;;
57832;SDS011;43667;53.036;6.740;2024-02-14T05:00:29;11.43;;;9.32;;
57832;SDS011;43667;53.036;6.740;2024-02-14T05:02:55;16.35;;;10.82;;
57832;SDS011;43667;53.036;6.740;2024-02-14T05:05:22;15.18;;;10.88;;
57832;SDS011;43667;53.036;6.740;2024-02-14T05:07:48;14.25;;;10.55;;
57832;SDS011;43667;53.036;6.740;2024-02-14T05:10:14;20.08;;;12.20;;
57832;SDS011;43667;53.036;6.740;2024-02-14T05:12:40;17.70;;;11.13;;
57832;SDS011;43667;53.036;6.740;2024-02-14T05:15:06;16.40;;;11.70;;
57832;SDS011;43667;53.036;6.740;2024-02-14T05:17:33;13.65;;;10.40;;
57832;SDS011;43667;53.036;6.740;2024-02-14T05:20:00;17.40;;;11.70;;
57832;SDS011;43667;53.036;6.740;2024-02-14T05:22:26;13.40;;;10.20;;
57832;SDS011;43667;53.036;6.740;2024-02-14T05:24:52;13.13;;;10.10;;
57832;SDS011;43667;53.036;6.740;2024-02-14T05:27:18;13.63;;;10.43;;
57832;SDS011;43667;53.036;6.740;2024-02-14T05:29:45;11.15;;;9.35;;
57832;SDS011;43667;53.036;6.740;2024-02-14T05:32:11;10.95;;;8.95;;
57832;SDS011;43667;53.036;6.740;2024-02-14T05:34:37;10.70;;;8.93;;
57832;SDS011;43667;53.036;6.740;2024-02-14T05:37:03;10.30;;;8.55;;
57832;SDS011;43667;53.036;6.740;2024-02-14T05:39:30;11.27;;;8.73;;
57832;SDS011;43667;53.036;6.740;2024-02-14T05:41:56;14.77;;;10.40;;
57832;SDS011;43667;53.036;6.740;2024-02-14T05:44:22;11.60;;;9.02;;
57832;SDS011;43667;53.036;6.740;2024-02-14T05:46:48;13.75;;;10.45;;
57832;SDS011;43667;53.036;6.740;2024-02-14T05:49:14;13.48;;;9.73;;
57832;SDS011;43667;53.036;6.740;2024-02-14T05:51:40;16.55;;;10.50;;
57832;SDS011;43667;53.036;6.740;2024-02-14T05:54:06;13.27;;;9.68;;
57832;SDS011;43667;53.036;6.740;2024-02-14T05:56:32;10.02;;;8.70;;
57832;SDS011;43667;53.036;6.740;2024-02-14T05:58:58;9.23;;;7.95;;
57832;SDS011;43667;53.036;6.740;2024-02-14T06:01:24;12.45;;;8.65;;
57832;SDS011;43667;53.036;6.740;2024-02-14T06:03:50;8.77;;;7.80;;
57832;SDS011;43667;53.036;6.740;2024-02-14T06:06:17;9.52;;;8.15;;
57832;SDS011;43667;53.036;6.740;2024-02-14T06:08:43;12.27;;;9.15;;
57832;SDS011;43667;53.036;6.740;2024-02-14T06:11:09;10.30;;;8.23;;
57832;SDS011;43667;53.036;6.740;2024-02-14T06:13:37;15.88;;;10.15;;
57832;SDS011;43667;53.036;6.740;2024-02-14T06:16:03;14.65;;;10.07;;
57832;SDS011;43667;53.036;6.740;2024-02-14T06:18:30;10.75;;;9.18;;
57832;SDS011;43667;53.036;6.740;2024-02-14T06:20:56;13.48;;;9.45;;
57832;SDS011;43667;53.036;6.740;2024-02-14T06:23:22;14.23;;;10.40;;
57832;SDS011;43667;53.036;6.740;2024-02-14T06:25:48;15.52;;;10.50;;
57832;SDS011;43667;53.036;6.740;2024-02-14T06:28:14;16.55;;;9.90;;
57832;SDS011;43667;53.036;6.740;2024-02-14T06:30:40;13.52;;;10.40;;
57832;SDS011;43667;53.036;6.740;2024-02-14T06:33:06;17.33;;;11.55;;
57832;SDS011;43667;53.036;6.740;2024-02-14T06:35:32;16.70;;;11.43;;
57832;SDS011;43667;53.036;6.740;2024-02-14T06:37:58;16.88;;;11.18;;
57832;SDS011;43667;53.036;6.740;2024-02-14T06:40:25;13.55;;;9.90;;
57832;SDS011;43667;53.036;6.740;2024-02-14T06:42:52;20.83;;;12.63;;
57832;SDS011;43667;53.036;6.740;2024-02-14T06:45:19;22.88;;;13.40;;
57832;SDS011;43667;53.036;6.740;2024-02-14T06:47:45;20.48;;;13.20;;
57832;SDS011;43667;53.036;6.740;2024-02-14T06:50:11;22.52;;;13.13;;
57832;SDS011;43667;53.036;6.740;2024-02-14T06:52:37;29.25;;;14.18;;
57832;SDS011;43667;53.036;6.740;2024-02-14T06:55:03;24.60;;;13.63;;
57832;SDS011;43667;53.036;6.740;2024-02-14T06:57:30;29.50;;;14.77;;
57832;SDS011;43667;53.036;6.740;2024-02-14T06:59:56;41.60;;;18.30;;
57832;SDS011;43667;53.036;6.740;2024-02-14T07:02:22;46.42;;;17.38;;
57832;SDS011;43667;53.036;6.740;2024-02-14T07:04:48;39.83;;;17.80;;
57832;SDS011;43667;53.036;6.740;2024-02-14T07:07:14;48.35;;;18.63;;
57832;SDS011;43667;53.036;6.740;2024-02-14T07:09:40;47.90;;;19.25;;
57832;SDS011;43667;53.036;6.740;2024-02-14T07:12:06;50.22;;;17.27;;
57832;SDS011;43667;53.036;6.740;2024-02-14T07:14:32;45.83;;;18.15;;
57832;SDS011;43667;53.036;6.740;2024-02-14T07:16:58;59.28;;;19.35;;
57832;SDS011;43667;53.036;6.740;2024-02-14T07:19:24;75.53;;;21.38;;
57832;SDS011;43667;53.036;6.740;2024-02-14T07:21:50;67.38;;;19.85;;
57832;SDS011;43667;53.036;6.740;2024-02-14T07:24:16;73.32;;;20.08;;
57832;SDS011;43667;53.036;6.740;2024-02-14T07:26:43;74.78;;;19.25;;
57832;SDS011;43667;53.036;6.740;2024-02-14T07:29:09;63.65;;;16.73;;
57832;SDS011;43667;53.036;6.740;2024-02-14T07:31:35;67.88;;;15.57;;
57832;SDS011;43667;53.036;6.740;2024-02-14T07:34:01;59.05;;;16.95;;
57832;SDS011;43667;53.036;6.740;2024-02-14T07:36:28;65.03;;;15.32;;
57832;SDS011;43667;53.036;6.740;2024-02-14T07:38:55;59.08;;;16.27;;
57832;SDS011;43667;53.036;6.740;2024-02-14T07:41:21;61.47;;;15.38;;
57832;SDS011;43667;53.036;6.740;2024-02-14T07:43:47;50.08;;;13.18;;
57832;SDS011;43667;53.036;6.740;2024-02-14T07:46:19;71.93;;;17.45;;
57832;SDS011;43667;53.036;6.740;2024-02-14T07:48:47;50.63;;;14.07;;
57832;SDS011;43667;53.036;6.740;2024-02-14T07:51:13;54.95;;;14.85;;
57832;SDS011;43667;53.036;6.740;2024-02-14T07:53:39;56.83;;;14.25;;
57832;SDS011;43667;53.036;6.740;2024-02-14T07:56:05;46.58;;;14.98;;
57832;SDS011;43667;53.036;6.740;2024-02-14T07:58:31;51.03;;;15.27;;
57832;SDS011;43667;53.036;6.740;2024-02-14T08:00:58;38.35;;;12.88;;
57832;SDS011;43667;53.036;6.740;2024-02-14T08:03:24;51.88;;;14.02;;
57832;SDS011;43667;53.036;6.740;2024-02-14T08:05:50;51.33;;;14.13;;
57832;SDS011;43667;53.036;6.740;2024-02-14T08:08:16;65.35;;;16.15;;
57832;SDS011;43667;53.036;6.740;2024-02-14T08:10:42;47.53;;;14.73;;
57832;SDS011;43667;53.036;6.740;2024-02-14T08:13:08;51.78;;;14.88;;
57832;SDS011;43667;53.036;6.740;2024-02-14T08:15:36;54.67;;;13.77;;
57832;SDS011;43667;53.036;6.740;2024-02-14T08:18:02;44.60;;;13.07;;
57832;SDS011;43667;53.036;6.740;2024-02-14T08:20:28;57.75;;;17.08;;
57832;SDS011;43667;53.036;6.740;2024-02-14T08:22:54;58.05;;;15.63;;
57832;SDS011;43667;53.036;6.740;2024-02-14T08:25:20;53.03;;;14.70;;
57832;SDS011;43667;53.036;6.740;2024-02-14T08:27:46;50.75;;;14.63;;
57832;SDS011;43667;53.036;6.740;2024-02-14T08:30:12;49.38;;;13.23;;
57832;SDS011;43667;53.036;6.740;2024-02-14T08:32:38;41.95;;;12.73;;
57832;SDS011;43667;53.036;6.740;2024-02-14T08:35:04;52.80;;;13.73;;
57832;SDS011;43667;53.036;6.740;2024-02-14T08:37:32;49.83;;;12.98;;
57832;SDS011;43667;53.036;6.740;2024-02-14T08:40:01;41.60;;;11.57;;
57832;SDS011;43667;53.036;6.740;2024-02-14T08:42:30;30.33;;;10.10;;
57832;SDS011;43667;53.036;6.740;2024-02-14T08:44:56;39.70;;;11.02;;
57832;SDS011;43667;53.036;6.740;2024-02-14T08:47:22;32.28;;;9.85;;
57832;SDS011;43667;53.036;6.740;2024-02-14T08:49:49;36.15;;;10.70;;
57832;SDS011;43667;53.036;6.740;2024-02-14T08:52:15;42.47;;;11.20;;
57832;SDS011;43667;53.036;6.740;2024-02-14T08:54:44;41.65;;;12.35;;
57832;SDS011;43667;53.036;6.740;2024-02-14T08:57:10;30.40;;;9.90;;
57832;SDS011;43667;53.036;6.740;2024-02-14T08:59:36;37.83;;;11.43;;
57832;SDS011;43667;53.036;6.740;2024-02-14T09:02:02;35.08;;;11.50;;
57832;SDS011;43667;53.036;6.740;2024-02-14T09:04:28;45.30;;;12.25;;
57832;SDS011;43667;53.036;6.740;2024-02-14T09:06:54;40.35;;;11.82;;
57832;SDS011;43667;53.036;6.740;2024-02-14T09:09:20;30.25;;;12.27;;
57832;SDS011;43667;53.036;6.740;2024-02-14T09:11:46;45.38;;;14.15;;
57832;SDS011;43667;53.036;6.740;2024-02-14T09:14:12;37.00;;;12.43;;
57832;SDS011;43667;53.036;6.740;2024-02-14T09:16:38;39.20;;;13.02;;
57832;SDS011;43667;53.036;6.740;2024-02-14T09:19:04;32.60;;;12.52;;
57832;SDS011;43667;53.036;6.740;2024-02-14T09:21:33;43.67;;;15.20;;
57832;SDS011;43667;53.036;6.740;2024-02-14T09:24:00;35.15;;;13.13;;
57832;SDS011;43667;53.036;6.740;2024-02-14T09:26:27;38.30;;;14.57;;
57832;SDS011;43667;53.036;6.740;2024-02-14T09:28:54;36.53;;;14.50;;
57832;SDS011;43667;53.036;6.740;2024-02-14T09:31:20;39.72;;;15.07;;
57832;SDS011;43667;53.036;6.740;2024-02-14T09:33:47;38.45;;;14.30;;
57832;SDS011;43667;53.036;6.740;2024-02-14T09:36:14;40.75;;;14.88;;
57832;SDS011;43667;53.036;6.740;2024-02-14T09:38:40;40.92;;;14.85;;
57832;SDS011;43667;53.036;6.740;2024-02-14T09:41:19;34.42;;;13.88;;
57832;SDS011;43667;53.036;6.740;2024-02-14T09:43:47;40.20;;;15.50;;
57832;SDS011;43667;53.036;6.740;2024-02-14T09:46:14;37.20;;;15.55;;
57832;SDS011;43667;53.036;6.740;2024-02-14T09:48:44;43.13;;;15.70;;
57832;SDS011;43667;53.036;6.740;2024-02-14T09:51:10;48.83;;;17.38;;
57832;SDS011;43667;53.036;6.740;2024-02-14T09:53:40;39.28;;;15.73;;
57832;SDS011;43667;53.036;6.740;2024-02-14T09:56:08;36.85;;;16.67;;
57832;SDS011;43667;53.036;6.740;2024-02-14T09:58:35;36.65;;;17.00;;
57832;SDS011;43667;53.036;6.740;2024-02-14T10:01:02;35.13;;;17.17;;
57832;SDS011;43667;53.036;6.740;2024-02-14T10:03:28;33.95;;;16.27;;
57832;SDS011;43667;53.036;6.740;2024-02-14T10:05:54;34.10;;;17.83;;
57832;SDS011;43667;53.036;6.740;2024-02-14T10:08:20;33.72;;;18.13;;
57832;SDS011;43667;53.036;6.740;2024-02-14T10:10:46;44.03;;;21.65;;
57832;SDS011;43667;53.036;6.740;2024-02-14T10:13:12;40.63;;;21.50;;
57832;SDS011;43667;53.036;6.740;2024-02-14T10:15:38;43.58;;;22.02;;
57832;SDS011;43667;53.036;6.740;2024-02-14T10:18:04;38.55;;;22.00;;
57832;SDS011;43667;53.036;6.740;2024-02-14T10:20:30;40.45;;;22.77;;
57832;SDS011;43667;53.036;6.740;2024-02-14T10:23:02;46.90;;;25.65;;
57832;SDS011;43667;53.036;6.740;2024-02-14T10:25:33;44.30;;;25.50;;
57832;SDS011;43667;53.036;6.740;2024-02-14T10:28:03;48.42;;;27.63;;
57832;SDS011;43667;53.036;6.740;2024-02-14T10:30:30;57.95;;;29.27;;
57832;SDS011;43667;53.036;6.740;2024-02-14T10:32:58;55.78;;;28.92;;
57832;SDS011;43667;53.036;6.740;2024-02-14T10:35:24;58.08;;;28.52;;
57832;SDS011;43667;53.036;6.740;2024-02-14T10:37:50;55.83;;;28.45;;
57832;SDS011;43667;53.036;6.740;2024-02-14T10:40:18;51.17;;;27.88;;
57832;SDS011;43667;53.036;6.740;2024-02-14T10:42:45;44.03;;;26.00;;
57832;SDS011;43667;53.036;6.740;2024-02-14T10:45:11;33.50;;;22.23;;
57832;SDS011;43667;53.036;6.740;2024-02-14T10:47:39;41.88;;;25.10;;
57832;SDS011;43667;53.036;6.740;2024-02-14T10:50:06;48.33;;;25.08;;
57832;SDS011;43667;53.036;6.740;2024-02-14T10:52:34;35.70;;;20.58;;
57832;SDS011;43667;53.036;6.740;2024-02-14T10:55:02;39.60;;;21.45;;
57832;SDS011;43667;53.036;6.740;2024-02-14T10:57:28;34.33;;;19.77;;
57832;SDS011;43667;53.036;6.740;2024-02-14T10:59:55;27.75;;;18.25;;
57832;SDS011;43667;53.036;6.740;2024-02-14T11:02:22;27.48;;;19.05;;
57832;SDS011;43667;53.036;6.740;2024-02-14T11:04:48;29.55;;;20.27;;
57832;SDS011;43667;53.036;6.740;2024-02-14T11:07:19;32.92;;;20.83;;
57832;SDS011;43667;53.036;6.740;2024-02-14T11:09:46;24.80;;;18.67;;
57832;SDS011;43667;53.036;6.740;2024-02-14T11:12:12;29.30;;;20.02;;
57832;SDS011;43667;53.036;6.740;2024-02-14T11:14:38;28.80;;;19.90;;
57832;SDS011;43667;53.036;6.740;2024-02-14T11:17:09;34.03;;;21.35;;
57832;SDS011;43667;53.036;6.740;2024-02-14T11:19:35;28.05;;;19.25;;
57832;SDS011;43667;53.036;6.740;2024-02-14T11:22:11;29.55;;;20.00;;
57832;SDS011;43667;53.036;6.740;2024-02-14T11:24:40;28.65;;;18.95;;
57832;SDS011;43667;53.036;6.740;2024-02-14T11:27:12;32.35;;;20.02;;
57832;SDS011;43667;53.036;6.740;2024-02-14T11:29:39;26.10;;;19.45;;
57832;SDS011;43667;53.036;6.740;2024-02-14T11:32:08;27.35;;;19.25;;
57832;SDS011;43667;53.036;6.740;2024-02-14T11:34:35;25.05;;;18.80;;
57832;SDS011;43667;53.036;6.740;2024-02-14T11:37:01;21.73;;;17.13;;
57832;SDS011;43667;53.036;6.740;2024-02-14T11:39:27;26.13;;;18.27;;
57832;SDS011;43667;53.036;6.740;2024-02-14T11:41:53;26.45;;;19.38;;
57832;SDS011;43667;53.036;6.740;2024-02-14T11:44:19;29.92;;;20.77;;
57832;SDS011;43667;53.036;6.740;2024-02-14T11:46:47;33.22;;;21.08;;
57832;SDS011;43667;53.036;6.740;2024-02-14T11:49:13;35.30;;;22.38;;
57832;SDS011;43667;53.036;6.740;2024-02-14T11:51:39;26.40;;;20.85;;
57832;SDS011;43667;53.036;6.740;2024-02-14T11:54:06;31.63;;;21.73;;
57832;SDS011;43667;53.036;6.740;2024-02-14T11:56:36;36.88;;;24.83;;
57832;SDS011;43667;53.036;6.740;2024-02-14T11:59:03;30.60;;;23.55;;
57832;SDS011;43667;53.036;6.740;2024-02-14T12:01:30;24.77;;;21.88;;
57832;SDS011;43667;53.036;6.740;2024-02-14T12:03:59;28.33;;;22.20;;
57832;SDS011;43667;53.036;6.740;2024-02-14T12:06:26;31.00;;;25.05;;
57832;SDS011;43667;53.036;6.740;2024-02-14T12:08:53;28.27;;;22.95;;
57832;SDS011;43667;53.036;6.740;2024-02-14T12:11:19;31.02;;;23.63;;
57832;SDS011;43667;53.036;6.740;2024-02-14T12:13:49;28.33;;;23.15;;
57832;SDS011;43667;53.036;6.740;2024-02-14T12:16:15;28.05;;;22.38;;
57832;SDS011;43667;53.036;6.740;2024-02-14T12:18:41;28.52;;;23.05;;
57832;SDS011;43667;53.036;6.740;2024-02-14T12:21:07;28.63;;;21.65;;
57832;SDS011;43667;53.036;6.740;2024-02-14T12:23:33;25.65;;;22.70;;
57832;SDS011;43667;53.036;6.740;2024-02-14T12:26:03;26.30;;;21.38;;
57832;SDS011;43667;53.036;6.740;2024-02-14T12:28:30;21.77;;;19.35;;
57832;SDS011;43667;53.036;6.740;2024-02-14T12:30:56;22.77;;;20.48;;
57832;SDS011;43667;53.036;6.740;2024-02-14T12:33:23;22.30;;;19.92;;
57832;SDS011;43667;53.036;6.740;2024-02-14T12:35:50;23.52;;;20.50;;
57832;SDS011;43667;53.036;6.740;2024-02-14T12:38:16;26.67;;;19.50;;
57832;SDS011;43667;53.036;6.740;2024-02-14T12:40:43;22.65;;;18.38;;
57832;SDS011;43667;53.036;6.740;2024-02-14T12:43:11;18.83;;;17.02;;
57832;SDS011;43667;53.036;6.740;2024-02-14T12:45:38;24.80;;;19.15;;
57832;SDS011;43667;53.036;6.740;2024-02-14T12:48:07;19.92;;;18.00;;
57832;SDS011;43667;53.036;6.740;2024-02-14T12:50:34;18.95;;;16.52;;
57832;SDS011;43667;53.036;6.740;2024-02-14T12:53:01;17.83;;;16.23;;
57832;SDS011;43667;53.036;6.740;2024-02-14T12:55:27;17.38;;;15.80;;
57832;SDS011;43667;53.036;6.740;2024-02-14T12:57:56;17.75;;;16.08;;
57832;SDS011;43667;53.036;6.740;2024-02-14T13:00:23;18.83;;;16.65;;
57832;SDS011;43667;53.036;6.740;2024-02-14T13:02:49;17.65;;;15.93;;
57832;SDS011;43667;53.036;6.740;2024-02-14T13:05:16;18.77;;;15.95;;
57832;SDS011;43667;53.036;6.740;2024-02-14T13:07:42;18.63;;;16.63;;
57832;SDS011;43667;53.036;6.740;2024-02-14T13:10:09;18.20;;;15.82;;
57832;SDS011;43667;53.036;6.740;2024-02-14T13:12:35;18.42;;;16.52;;
57832;SDS011;43667;53.036;6.740;2024-02-14T13:15:02;15.57;;;14.07;;
57832;SDS011;43667;53.036;6.740;2024-02-14T13:17:29;17.05;;;15.40;;
57832;SDS011;43667;53.036;6.740;2024-02-14T13:19:55;15.95;;;14.55;;
57832;SDS011;43667;53.036;6.740;2024-02-14T13:22:21;17.63;;;15.85;;
57832;SDS011;43667;53.036;6.740;2024-02-14T13:24:48;19.38;;;16.50;;
57832;SDS011;43667;53.036;6.740;2024-02-14T13:27:15;17.98;;;16.30;;
57832;SDS011;43667;53.036;6.740;2024-02-14T13:29:41;18.50;;;16.80;;
57832;SDS011;43667;53.036;6.740;2024-02-14T13:32:07;19.02;;;17.13;;
57832;SDS011;43667;53.036;6.740;2024-02-14T13:34:33;20.83;;;18.63;;
57832;SDS011;43667;53.036;6.740;2024-02-14T13:37:00;21.75;;;19.63;;
57832;SDS011;43667;53.036;6.740;2024-02-14T13:39:27;20.40;;;18.20;;
57832;SDS011;43667;53.036;6.740;2024-02-14T13:41:53;22.50;;;20.27;;
57832;SDS011;43667;53.036;6.740;2024-02-14T13:44:22;24.42;;;21.90;;
57832;SDS011;43667;53.036;6.740;2024-02-14T13:46:49;25.70;;;23.15;;
57832;SDS011;43667;53.036;6.740;2024-02-14T13:49:17;28.33;;;23.65;;
57832;SDS011;43667;53.036;6.740;2024-02-14T13:51:55;28.40;;;23.15;;
57832;SDS011;43667;53.036;6.740;2024-02-14T13:54:23;26.23;;;22.35;;
57832;SDS011;43667;53.036;6.740;2024-02-14T13:56:49;30.20;;;23.42;;
57832;SDS011;43667;53.036;6.740;2024-02-14T13:59:15;28.13;;;23.40;;
57832;SDS011;43667;53.036;6.740;2024-02-14T14:01:42;26.55;;;22.55;;
57832;SDS011;43667;53.036;6.740;2024-02-14T14:04:08;24.13;;;21.58;;
57832;SDS011;43667;53.036;6.740;2024-02-14T14:06:34;25.15;;;21.10;;
57832;SDS011;43667;53.036;6.740;2024-02-14T14:09:00;23.92;;;20.45;;
57832;SDS011;43667;53.036;6.740;2024-02-14T14:11:28;19.90;;;17.77;;
57832;SDS011;43667;53.036;6.740;2024-02-14T14:13:54;18.80;;;16.85;;
57832;SDS011;43667;53.036;6.740;2024-02-14T14:16:20;18.25;;;16.45;;
57832;SDS011;43667;53.036;6.740;2024-02-14T14:18:48;23.15;;;17.52;;
57832;SDS011;43667;53.036;6.740;2024-02-14T14:21:14;17.63;;;15.35;;